Time;durP1;ratioP1;P1;durP2;ratioP2;P2;SDS_P1;SDS_P2;PMS_P1;PMS_P2;Temp;Humidity;BMP_temperature;BMP_pressure;BME280_temperature;BME280_humidity;BME280_pressure;Samples;Min_cycle;Max_cycle;Signal;HPM_P1;HPM_P2
2022/03/05 00:00:38;;;;;;;7.28;5.40;;;18.30;32.20;;;;;;5054281;28;20422;-37
2022/03/05 00:03:04;;;;;;;7.93;5.60;;;18.30;32.10;;;;;;5054318;28;20013;-36
2022/03/05 00:05:30;;;;;;;6.70;5.10;;;18.30;32.10;;;;;;5053410;28;20115;-38
2022/03/05 00:07:56;;;;;;;6.20;5.28;;;18.30;32.10;;;;;;5056842;28;20024;-36
2022/03/05 00:10:21;;;;;;;7.40;5.50;;;18.30;32.10;;;;;;5056550;28;20033;-37
2022/03/05 00:12:49;;;;;;;6.13;5.53;;;18.20;32.10;;;;;;5053252;28;20017;-36
2022/03/05 00:15:16;;;;;;;8.45;5.68;;;18.20;32.10;;;;;;5053746;28;20014;-36
2022/03/05 00:17:42;;;;;;;7.45;5.72;;;18.20;32.20;;;;;;5053877;28;20067;-37
2022/03/05 00:20:09;;;;;;;7.70;5.40;;;18.20;32.20;;;;;;5053912;28;20021;-37
2022/03/05 00:22:35;;;;;;;7.63;6.05;;;18.20;32.10;;;;;;5053909;28;20108;-36
2022/03/05 00:25:01;;;;;;;7.03;5.22;;;18.20;32.20;;;;;;5053870;28;20108;-37
2022/03/05 00:27:27;;;;;;;7.53;5.95;;;18.20;32.20;;;;;;5053476;28;20086;-37
2022/03/05 00:29:54;;;;;;;7.18;5.25;;;18.10;32.10;;;;;;5052916;28;20483;-36
2022/03/05 00:32:20;;;;;;;6.68;5.75;;;18.20;32.20;;;;;;5053390;28;20021;-36
2022/03/05 00:34:46;;;;;;;6.68;5.50;;;18.10;32.20;;;;;;5053618;28;20456;-37
2022/03/05 00:37:12;;;;;;;7.47;6.15;;;18.10;32.10;;;;;;5053540;28;20416;-37
2022/03/05 00:39:37;;;;;;;6.53;5.82;;;18.10;32.20;;;;;;5053233;28;20105;-36
2022/03/05 00:42:04;;;;;;;7.38;5.90;;;18.10;32.20;;;;;;5037593;28;20021;-39
2022/03/05 00:44:30;;;;;;;8.48;6.00;;;18.10;32.20;;;;;;5056365;28;20112;-37
2022/03/05 00:46:56;;;;;;;7.75;5.72;;;18.10;32.20;;;;;;5038660;28;20443;-37
2022/03/05 00:49:22;;;;;;;6.82;5.50;;;18.10;32.20;;;;;;5056936;28;20064;-37
2022/03/05 00:51:52;;;;;;;7.47;6.15;;;18.10;32.30;;;;;;5058095;28;20056;-37
2022/03/05 00:54:21;;;;;;;8.27;6.03;;;18.10;32.30;;;;;;5056666;28;20010;-37
2022/03/05 00:56:46;;;;;;;8.10;6.43;;;18.00;32.30;;;;;;5057680;28;20024;-39
2022/03/05 00:59:12;;;;;;;8.35;5.70;;;18.00;32.20;;;;;;5057670;28;20043;-38
2022/03/05 01:01:39;;;;;;;8.38;6.45;;;18.00;32.20;;;;;;5057283;28;20391;-37
2022/03/05 01:04:05;;;;;;;6.53;5.80;;;18.00;32.30;;;;;;5056456;28;20009;-37
2022/03/05 01:06:32;;;;;;;7.35;6.22;;;18.00;32.20;;;;;;5057195;28;20017;-37
2022/03/05 01:08:59;;;;;;;7.53;5.65;;;18.00;32.30;;;;;;5056449;28;20021;-37
2022/03/05 01:11:25;;;;;;;8.02;5.82;;;18.00;32.40;;;;;;5056222;28;20092;-41
2022/03/05 01:13:51;;;;;;;7.82;5.75;;;18.00;32.30;;;;;;5058088;28;20059;-38
2022/03/05 01:16:18;;;;;;;6.95;5.80;;;18.00;32.40;;;;;;5057902;28;20013;-37
2022/03/05 01:18:43;;;;;;;8.82;6.32;;;18.00;32.40;;;;;;5057431;28;20021;-39
2022/03/05 01:21:09;;;;;;;7.35;5.72;;;17.90;32.30;;;;;;5057031;28;20487;-38
2022/03/05 01:23:35;;;;;;;7.18;6.20;;;18.00;32.40;;;;;;5057833;28;20100;-37
2022/03/05 01:26:01;;;;;;;7.40;5.88;;;17.90;32.40;;;;;;5057939;28;20044;-37
2022/03/05 01:28:27;;;;;;;7.90;5.88;;;17.90;32.40;;;;;;5055723;28;20494;-38
2022/03/05 01:30:53;;;;;;;7.65;5.88;;;17.90;32.40;;;;;;5057001;28;20029;-38
2022/03/05 01:33:19;;;;;;;9.43;6.05;;;17.90;32.40;;;;;;5057075;28;20009;-37
2022/03/05 01:35:45;;;;;;;7.97;6.15;;;17.90;32.40;;;;;;5056343;28;20059;-37
2022/03/05 01:38:12;;;;;;;7.43;6.03;;;17.90;32.40;;;;;;5055695;28;20013;-38
2022/03/05 01:40:41;;;;;;;7.75;6.30;;;17.90;32.50;;;;;;5056947;28;20025;-38
2022/03/05 01:43:07;;;;;;;8.02;6.30;;;17.90;32.50;;;;;;5055986;28;20041;-39
2022/03/05 01:45:33;;;;;;;7.57;6.20;;;17.80;32.50;;;;;;5056624;28;20070;-37
2022/03/05 01:47:59;;;;;;;7.47;6.03;;;17.80;32.50;;;;;;5054552;28;20021;-37
2022/03/05 01:50:25;;;;;;;8.68;6.20;;;17.80;32.60;;;;;;5056586;28;20018;-37
2022/03/05 01:52:50;;;;;;;8.07;6.20;;;17.80;32.60;;;;;;5056582;28;20141;-38
2022/03/05 01:55:17;;;;;;;7.38;5.80;;;17.80;32.60;;;;;;5056337;28;20020;-39
2022/03/05 01:57:42;;;;;;;8.02;6.22;;;17.80;32.60;;;;;;5054620;28;20013;-38
2022/03/05 02:00:09;;;;;;;9.25;6.65;;;17.80;32.60;;;;;;5055450;28;20032;-38
2022/03/05 02:02:36;;;;;;;8.20;6.43;;;17.80;32.60;;;;;;5054999;28;20013;-38
2022/03/05 02:05:03;;;;;;;8.77;6.50;;;17.80;32.60;;;;;;5054974;28;20017;-39
2022/03/05 02:07:29;;;;;;;7.90;6.55;;;17.70;32.60;;;;;;5053601;28;20033;-40
2022/03/05 02:09:55;;;;;;;8.02;6.38;;;17.80;32.60;;;;;;5054643;28;20025;-40
2022/03/05 02:12:31;;;;;;;7.45;5.95;;;17.80;32.70;;;;;;5021018;28;20022;-37
2022/03/05 02:14:58;;;;;;;7.15;6.30;;;17.70;32.60;;;;;;5056519;28;20017;-37
2022/03/05 02:17:24;;;;;;;7.57;6.43;;;17.70;32.70;;;;;;5059403;28;20025;-38
2022/03/05 02:19:50;;;;;;;8.25;6.57;;;17.70;32.70;;;;;;5058515;28;20013;-41
2022/03/05 02:22:16;;;;;;;8.15;6.57;;;17.70;32.70;;;;;;5059333;28;20020;-38
2022/03/05 02:24:42;;;;;;;9.60;6.38;;;17.70;32.70;;;;;;5058685;28;20029;-36
2022/03/05 02:27:10;;;;;;;7.72;6.60;;;17.70;32.80;;;;;;5059667;28;20017;-38
2022/03/05 02:29:36;;;;;;;7.50;6.40;;;17.70;32.80;;;;;;5059017;28;20025;-37
2022/03/05 02:32:02;;;;;;;8.38;6.10;;;17.70;32.80;;;;;;5058704;28;20032;-37
2022/03/05 02:34:29;;;;;;;8.52;6.45;;;17.70;32.80;;;;;;5057558;28;20017;-39
2022/03/05 02:36:56;;;;;;;7.65;6.47;;;17.70;32.80;;;;;;5058315;28;20094;-39
2022/03/05 02:39:25;;;;;;;8.13;6.18;;;17.70;32.80;;;;;;5058661;28;20029;-36
2022/03/05 02:41:54;;;;;;;8.77;6.50;;;17.60;32.80;;;;;;5059167;28;20052;-37
2022/03/05 02:44:20;;;;;;;7.90;6.40;;;17.60;32.80;;;;;;5059659;28;20052;-37
2022/03/05 02:46:46;;;;;;;9.25;6.50;;;17.60;32.90;;;;;;5059498;28;20100;-37
2022/03/05 02:49:12;;;;;;;9.77;6.82;;;17.60;32.90;;;;;;5058418;28;20098;-37
2022/03/05 02:51:38;;;;;;;9.02;6.22;;;17.60;32.90;;;;;;5057750;28;20507;-37
2022/03/05 02:54:04;;;;;;;8.57;6.78;;;17.60;33.00;;;;;;5057376;28;20105;-38
2022/03/05 02:56:30;;;;;;;6.90;6.05;;;17.60;32.90;;;;;;5056866;28;20024;-38
2022/03/05 02:58:56;;;;;;;7.93;6.20;;;17.60;33.00;;;;;;5039885;28;20025;-38
2022/03/05 03:01:22;;;;;;;7.20;6.25;;;17.60;33.00;;;;;;5056200;28;20064;-37
2022/03/05 03:03:49;;;;;;;8.52;6.32;;;17.60;33.10;;;;;;5058298;28;20017;-39
2022/03/05 03:06:16;;;;;;;7.65;6.40;;;17.50;33.00;;;;;;5058555;28;20021;-40
2022/03/05 03:08:42;;;;;;;7.90;6.55;;;17.50;33.00;;;;;;5059513;28;20099;-40
2022/03/05 03:11:08;;;;;;;8.38;6.30;;;17.50;33.00;;;;;;5059289;28;20471;-37
2022/03/05 03:13:34;;;;;;;9.32;7.18;;;17.50;33.00;;;;;;5055189;28;20017;-37
2022/03/05 03:16:00;;;;;;;9.60;6.88;;;17.50;33.10;;;;;;5053497;28;20017;-38
2022/03/05 03:18:25;;;;;;;9.02;6.78;;;17.50;33.10;;;;;;5054717;28;20021;-37
2022/03/05 03:20:52;;;;;;;7.30;6.32;;;17.50;33.10;;;;;;5053606;28;20487;-37
2022/03/05 03:23:17;;;;;;;8.35;6.47;;;17.50;33.20;;;;;;5053550;28;20160;-38
2022/03/05 03:25:43;;;;;;;9.40;6.25;;;17.50;33.20;;;;;;5054382;28;20482;-38
2022/03/05 03:28:09;;;;;;;8.10;6.75;;;17.50;33.20;;;;;;5055255;28;20392;-38
2022/03/05 03:30:34;;;;;;;8.88;6.07;;;17.40;33.10;;;;;;5055033;28;20062;-38
2022/03/05 03:33:01;;;;;;;8.60;6.85;;;17.40;33.10;;;;;;5054217;28;20056;-39
2022/03/05 03:35:27;;;;;;;8.80;6.32;;;17.50;33.20;;;;;;5053993;28;20013;-38
2022/03/05 03:37:53;;;;;;;9.15;6.80;;;17.50;33.20;;;;;;5053946;28;20013;-38
2022/03/05 03:40:19;;;;;;;8.48;6.40;;;17.40;33.20;;;;;;5054933;28;20039;-40
2022/03/05 03:42:46;;;;;;;8.05;6.10;;;17.40;33.20;;;;;;5054409;28;20032;-38
2022/03/05 03:45:13;;;;;;;7.40;6.40;;;17.50;33.30;;;;;;5054925;28;20021;-37
2022/03/05 03:47:39;;;;;;;10.45;6.70;;;17.40;33.30;;;;;;5054298;28;20013;-37
2022/03/05 03:50:06;;;;;;;8.20;6.25;;;17.40;33.30;;;;;;5054154;28;20027;-38
2022/03/05 03:52:32;;;;;;;7.85;6.32;;;17.40;33.30;;;;;;5054316;28;20017;-37
2022/03/05 03:54:58;;;;;;;9.05;6.78;;;17.40;33.30;;;;;;5054425;28;20016;-38
2022/03/05 03:57:24;;;;;;;8.07;6.25;;;17.40;33.30;;;;;;5054534;28;20537;-39
2022/03/05 03:59:51;;;;;;;8.25;6.65;;;17.40;33.40;;;;;;5054243;28;20009;-38
2022/03/05 04:02:21;;;;;;;8.23;6.80;;;17.30;33.30;;;;;;5053852;28;20082;-38
2022/03/05 04:04:47;;;;;;;8.35;6.90;;;17.30;33.40;;;;;;5054096;28;20096;-39
2022/03/05 04:09:58;;;;;;;8.30;6.47;;;17.40;33.50;;;;;;5054233;28;20091;-38
2022/03/05 04:12:24;;;;;;;8.05;6.50;;;17.30;33.40;;;;;;5055662;28;20391;-40
2022/03/05 04:14:50;;;;;;;8.40;6.53;;;17.30;33.50;;;;;;5057266;28;20017;-38
2022/03/05 04:17:16;;;;;;;8.25;6.28;;;17.30;33.50;;;;;;5058960;28;20467;-38
2022/03/05 04:19:42;;;;;;;8.15;6.40;;;17.30;33.50;;;;;;5058374;28;20028;-41
2022/03/05 04:22:08;;;;;;;8.05;6.68;;;17.30;33.60;;;;;;5058362;28;20044;-39
2022/03/05 04:24:34;;;;;;;8.35;6.75;;;17.20;33.60;;;;;;5056984;28;20047;-40
2022/03/05 04:27:00;;;;;;;7.43;6.45;;;17.20;33.70;;;;;;5056508;28;20032;-40
2022/03/05 04:29:26;;;;;;;8.65;6.53;;;17.30;33.80;;;;;;5058679;28;20021;-40
2022/03/05 04:31:52;;;;;;;8.98;6.60;;;17.20;33.70;;;;;;5057778;28;20017;-42
2022/03/05 04:34:17;;;;;;;9.55;6.95;;;17.20;33.70;;;;;;5057173;28;20060;-41
2022/03/05 04:36:43;;;;;;;8.32;6.45;;;17.20;33.70;;;;;;5058850;28;20017;-41
2022/03/05 04:39:17;;;;;;;9.25;6.85;;;17.20;33.70;;;;;;5040911;28;20110;-39
2022/03/05 04:41:43;;;;;;;7.95;6.53;;;17.20;33.70;;;;;;5057977;28;20025;-38
2022/03/05 04:44:09;;;;;;;8.77;6.95;;;17.20;33.70;;;;;;5053463;28;20503;-39
2022/03/05 04:46:34;;;;;;;7.95;6.40;;;17.20;33.70;;;;;;5052533;28;20445;-38
2022/03/05 04:49:00;;;;;;;9.10;6.55;;;17.20;33.70;;;;;;5053660;28;20485;-39
2022/03/05 04:51:26;;;;;;;8.35;6.68;;;17.20;33.70;;;;;;5052149;28;20028;-38
2022/03/05 04:53:52;;;;;;;8.45;6.38;;;17.20;33.80;;;;;;5053396;28;20391;-39
2022/03/05 04:56:17;;;;;;;9.23;7.07;;;17.10;33.80;;;;;;5051919;28;20021;-40
2022/03/05 04:58:43;;;;;;;8.45;6.55;;;17.20;33.90;;;;;;5053689;28;20455;-41
2022/03/05 05:01:10;;;;;;;9.05;6.70;;;17.10;33.80;;;;;;5053319;28;20017;-38
2022/03/05 05:03:36;;;;;;;8.75;6.93;;;17.10;33.80;;;;;;5053399;28;20021;-39
2022/03/05 05:06:03;;;;;;;8.35;6.47;;;17.10;33.80;;;;;;5053474;28;20052;-40
2022/03/05 05:08:30;;;;;;;7.35;6.00;;;17.10;33.90;;;;;;5053204;28;20021;-40
2022/03/05 05:10:56;;;;;;;7.93;6.43;;;17.10;33.90;;;;;;5053317;28;20028;-39
2022/03/05 05:13:22;;;;;;;7.10;6.40;;;17.10;33.90;;;;;;5055050;28;20070;-39
2022/03/05 05:15:48;;;;;;;9.10;6.30;;;17.10;34.00;;;;;;5056136;28;20024;-41
2022/03/05 05:18:14;;;;;;;8.10;6.32;;;17.00;33.90;;;;;;5055607;28;20025;-40
2022/03/05 05:20:40;;;;;;;8.63;6.60;;;17.00;33.90;;;;;;5055208;28;20017;-42
2022/03/05 05:23:06;;;;;;;8.93;6.65;;;17.10;34.00;;;;;;5055493;28;20506;-41
2022/03/05 05:25:33;;;;;;;8.52;6.45;;;17.00;34.00;;;;;;5055471;28;20517;-43
2022/03/05 05:27:58;;;;;;;8.25;6.47;;;17.00;34.00;;;;;;5054535;28;20021;-42
2022/03/05 05:30:24;;;;;;;7.63;6.43;;;17.00;34.00;;;;;;5054629;28;20063;-41
2022/03/05 05:32:51;;;;;;;7.75;6.57;;;17.00;34.00;;;;;;5054515;28;20049;-42
2022/03/05 05:35:17;;;;;;;7.90;6.10;;;17.00;34.00;;;;;;5053812;28;20090;-39
2022/03/05 05:37:42;;;;;;;8.35;6.50;;;17.00;34.10;;;;;;5053781;28;20475;-40
2022/03/05 05:40:09;;;;;;;9.32;6.93;;;17.00;34.00;;;;;;5054455;28;20037;-41
2022/03/05 05:42:37;;;;;;;8.90;6.57;;;17.00;34.00;;;;;;5053982;28;20122;-41
2022/03/05 05:45:03;;;;;;;7.72;6.38;;;17.00;34.00;;;;;;5053584;28;20544;-39
2022/03/05 05:47:29;;;;;;;8.80;6.45;;;17.00;34.10;;;;;;5053627;28;20017;-39
2022/03/05 05:49:55;;;;;;;7.38;6.00;;;17.00;34.10;;;;;;5054504;28;20499;-39
2022/03/05 05:52:23;;;;;;;7.78;6.30;;;16.90;34.00;;;;;;5056291;28;20021;-38
2022/03/05 05:54:48;;;;;;;7.28;6.40;;;16.90;34.10;;;;;;5056690;28;20036;-38
2022/03/05 05:57:15;;;;;;;8.25;6.53;;;16.90;34.10;;;;;;5056316;28;20013;-39
2022/03/05 05:59:41;;;;;;;10.05;6.47;;;17.00;34.20;;;;;;5055854;28;20418;-38
2022/03/05 06:02:07;;;;;;;7.90;6.68;;;16.90;34.10;;;;;;5056984;28;20025;-38
2022/03/05 06:04:33;;;;;;;7.82;6.13;;;16.90;34.10;;;;;;5055308;28;20510;-38
2022/03/05 06:06:59;;;;;;;7.32;6.20;;;16.90;34.20;;;;;;5057566;28;20395;-38
2022/03/05 06:09:24;;;;;;;7.85;6.30;;;16.90;34.10;;;;;;5055548;28;20391;-38
2022/03/05 06:11:51;;;;;;;8.38;6.55;;;16.90;34.20;;;;;;5057291;28;20025;-38
2022/03/05 06:14:17;;;;;;;7.78;6.03;;;16.90;34.30;;;;;;5040830;28;20051;-41
2022/03/05 06:16:44;;;;;;;9.25;6.57;;;16.90;34.30;;;;;;5058448;28;20472;-40
2022/03/05 06:19:10;;;;;;;8.27;6.50;;;16.90;34.30;;;;;;5057527;28;20032;-39
2022/03/05 06:21:35;;;;;;;7.88;6.18;;;16.80;34.30;;;;;;5058369;28;20025;-38
2022/03/05 06:24:01;;;;;;;8.05;6.05;;;16.80;34.30;;;;;;5058821;28;20106;-39
2022/03/05 06:26:31;;;;;;;9.18;6.50;;;16.80;34.30;;;;;;5059138;28;20028;-38
2022/03/05 06:28:57;;;;;;;;;;;16.90;34.30;;;;;;5059589;28;20029;-38
2022/03/05 06:31:29;;;;;;;8.70;6.40;;;16.80;34.30;;;;;;5059436;28;19924;-37
2022/03/05 06:33:56;;;;;;;6.82;6.07;;;16.90;34.30;;;;;;5059787;28;20060;-37
2022/03/05 06:36:22;;;;;;;8.23;6.13;;;16.80;34.30;;;;;;5058599;28;20040;-37
2022/03/05 06:38:48;;;;;;;7.15;5.72;;;16.90;34.30;;;;;;5059205;28;20471;-37
2022/03/05 06:41:15;;;;;;;7.78;6.18;;;16.90;34.30;;;;;;5058677;28;20486;-37
2022/03/05 06:43:41;;;;;;;7.90;6.30;;;16.80;34.30;;;;;;5057684;28;20044;-39
2022/03/05 06:46:08;;;;;;;8.02;6.07;;;16.80;34.30;;;;;;5057450;28;20028;-38
2022/03/05 06:48:35;;;;;;;7.07;6.25;;;16.80;34.30;;;;;;5057734;28;20021;-37
2022/03/05 06:51:01;;;;;;;7.55;6.00;;;16.90;34.30;;;;;;5057868;28;20013;-39
2022/03/05 06:53:27;;;;;;;7.68;6.18;;;17.10;34.00;;;;;;5057297;28;20021;-38
2022/03/05 06:55:53;;;;;;;7.80;6.38;;;17.50;33.30;;;;;;5057894;28;20047;-37
2022/03/05 06:58:19;;;;;;;7.22;5.90;;;17.80;32.60;;;;;;5054264;28;20009;-38
2022/03/05 07:00:46;;;;;;;7.28;6.10;;;18.10;32.10;;;;;;5054999;28;20040;-37
2022/03/05 07:03:13;;;;;;;6.95;6.22;;;18.30;31.70;;;;;;5055982;28;20084;-37
2022/03/05 07:05:39;;;;;;;7.25;5.97;;;18.50;31.40;;;;;;5056392;28;20021;-38
2022/03/05 07:08:05;;;;;;;7.45;5.90;;;18.50;31.20;;;;;;5056335;28;20109;-38
2022/03/05 07:10:33;;;;;;;6.82;5.90;;;18.20;31.50;;;;;;5054433;28;20108;-38
2022/03/05 07:13:00;;;;;;;7.72;6.43;;;18.00;32.00;;;;;;5053872;28;20498;-38
2022/03/05 07:15:26;;;;;;;7.53;6.35;;;17.90;32.20;;;;;;5054753;28;20448;-38
2022/03/05 07:17:52;;;;;;;7.60;5.75;;;17.80;32.30;;;;;;5054977;28;20044;-37
2022/03/05 07:20:18;;;;;;;7.32;5.88;;;17.80;32.30;;;;;;5054866;28;20013;-38
2022/03/05 07:22:43;;;;;;;8.63;6.38;;;17.80;32.40;;;;;;5055018;28;20471;-37
2022/03/05 07:25:10;;;;;;;7.28;5.82;;;17.80;32.40;;;;;;5055106;28;20028;-39
2022/03/05 07:27:36;;;;;;;7.38;5.97;;;17.80;32.40;;;;;;5055219;28;20048;-39
2022/03/05 07:30:02;;;;;;;7.53;6.00;;;17.90;32.30;;;;;;5054671;28;20484;-36
2022/03/05 07:32:29;;;;;;;6.90;5.75;;;18.00;32.20;;;;;;5054933;28;20021;-37
2022/03/05 07:34:55;;;;;;;7.68;5.75;;;18.00;32.10;;;;;;5054618;28;20017;-37
2022/03/05 07:37:21;;;;;;;8.90;6.10;;;18.10;32.00;;;;;;5053244;28;20029;-37
2022/03/05 07:39:47;;;;;;;7.68;5.80;;;18.20;31.90;;;;;;5054393;28;20025;-37
2022/03/05 07:42:14;;;;;;;7.10;5.72;;;18.30;31.70;;;;;;5054086;28;20020;-37
2022/03/05 07:44:41;;;;;;;6.82;5.60;;;18.40;31.60;;;;;;5053760;28;20063;-38
2022/03/05 07:47:07;;;;;;;8.05;5.93;;;18.50;31.40;;;;;;5054118;28;20554;-40
2022/03/05 07:49:34;;;;;;;7.13;5.88;;;18.60;31.20;;;;;;5053870;28;20391;-39
2022/03/05 07:51:59;;;;;;;7.40;5.60;;;18.70;31.10;;;;;;5054033;28;20019;-40
2022/03/05 07:54:27;;;;;;;6.80;5.57;;;18.80;30.90;;;;;;5054066;28;20013;-39
2022/03/05 07:56:53;;;;;;;6.47;5.60;;;18.90;30.80;;;;;;5054034;28;20025;-38
2022/03/05 07:59:19;;;;;;;6.47;5.55;;;19.00;30.70;;;;;;5054204;28;20025;-39
2022/03/05 08:01:49;;;;;;;7.40;5.40;;;19.00;30.60;;;;;;5052938;28;20028;-38
2022/03/05 08:04:14;;;;;;;7.25;5.63;;;19.10;31.10;;;;;;5053756;28;20025;-38
2022/03/05 08:06:42;;;;;;;7.13;5.65;;;19.20;30.40;;;;;;5053748;28;20491;-38
2022/03/05 08:09:08;;;;;;;6.63;5.50;;;19.30;30.30;;;;;;5054006;28;20028;-38
2022/03/05 08:11:35;;;;;;;7.30;5.50;;;19.30;30.30;;;;;;5053517;28;20506;-40
2022/03/05 08:14:01;;;;;;;6.53;5.50;;;19.40;30.10;;;;;;5055000;28;20080;-41
2022/03/05 08:16:27;;;;;;;6.55;5.47;;;19.50;30.00;;;;;;5054534;28;20009;-40
2022/03/05 08:18:53;;;;;;;7.15;5.95;;;19.60;30.00;;;;;;5055384;28;20021;-42
2022/03/05 08:21:21;;;;;;;8.05;5.57;;;19.70;29.80;;;;;;5053827;28;20382;-39
2022/03/05 08:23:46;;;;;;;6.40;5.20;;;19.80;29.80;;;;;;5055753;28;20048;-39
2022/03/05 08:26:13;;;;;;;6.68;5.55;;;19.80;29.70;;;;;;5055034;28;20022;-39
2022/03/05 08:28:42;;;;;;;5.85;5.25;;;19.90;29.70;;;;;;5054879;28;20087;-40
2022/03/05 08:31:08;;;;;;;6.55;5.45;;;20.00;29.60;;;;;;5054624;28;20021;-39
2022/03/05 08:33:34;;;;;;;6.50;5.45;;;20.10;29.60;;;;;;5054605;28;20364;-38
2022/03/05 08:36:00;;;;;;;6.13;5.30;;;20.10;29.50;;;;;;5054578;28;20021;-38
2022/03/05 08:38:31;;;;;;;5.78;5.10;;;20.20;29.40;;;;;;5054327;28;20018;-37
2022/03/05 08:40:57;;;;;;;;;;;20.20;29.40;;;;;;5055241;28;20383;-37
2022/03/05 08:43:23;;;;;;;6.53;4.97;;;20.30;29.40;;;;;;5059518;28;19921;-38
2022/03/05 08:45:49;;;;;;;6.70;5.15;;;20.30;29.30;;;;;;5060616;28;20029;-38
2022/03/05 08:48:15;;;;;;;6.25;5.30;;;20.30;29.20;;;;;;5060652;28;20018;-41
2022/03/05 08:50:41;;;;;;;5.65;5.03;;;20.40;29.20;;;;;;5060978;28;20052;-39
2022/03/05 08:53:08;;;;;;;5.88;5.10;;;20.40;29.10;;;;;;5060826;28;20010;-42
2022/03/05 08:55:33;;;;;;;6.38;5.55;;;20.50;29.10;;;;;;5060247;28;20047;-38
2022/03/05 08:58:00;;;;;;;6.68;5.10;;;20.60;29.10;;;;;;5058333;28;20009;-40
2022/03/05 09:00:26;;;;;;;6.00;5.40;;;20.60;29.00;;;;;;5057292;28;20498;-38
2022/03/05 09:02:51;;;;;;;5.43;4.88;;;20.60;28.90;;;;;;5058680;28;20036;-38
2022/03/05 09:05:17;;;;;;;6.35;5.03;;;20.70;28.90;;;;;;5058099;28;20025;-38
2022/03/05 09:07:45;;;;;;;6.43;5.38;;;20.80;28.90;;;;;;5059485;28;20021;-39
2022/03/05 09:10:11;;;;;;;6.40;5.40;;;20.80;28.80;;;;;;5042763;28;20025;-38
2022/03/05 09:12:37;;;;;;;6.57;5.30;;;20.90;28.80;;;;;;5058522;28;20020;-39
2022/03/05 09:15:05;;;;;;;6.15;4.85;;;20.80;28.70;;;;;;5057246;28;20408;-37
2022/03/05 09:17:31;;;;;;;7.85;5.45;;;20.80;28.70;;;;;;5057340;28;20021;-37
2022/03/05 09:19:58;;;;;;;5.95;5.20;;;20.90;28.70;;;;;;5056712;28;20017;-39
2022/03/05 09:22:24;;;;;;;7.00;5.40;;;21.00;28.60;;;;;;5057248;28;20021;-38
2022/03/05 09:24:51;;;;;;;5.75;4.85;;;21.00;28.60;;;;;;5060077;28;20025;-39
2022/03/05 09:27:17;;;;;;;8.00;6.03;;;21.00;28.60;;;;;;5061151;28;20017;-38
2022/03/05 09:29:43;;;;;;;6.60;5.15;;;21.00;28.60;;;;;;5057801;28;20051;-37
2022/03/05 09:32:09;;;;;;;5.70;5.10;;;21.00;28.60;;;;;;5059427;28;20013;-37
2022/03/05 09:34:35;;;;;;;6.25;5.15;;;21.10;28.60;;;;;;5058229;28;20745;-38
2022/03/05 09:37:03;;;;;;;5.65;5.05;;;21.10;28.60;;;;;;5058357;28;20027;-37
2022/03/05 09:39:30;;;;;;;6.65;5.65;;;21.10;28.60;;;;;;5059764;28;20035;-39
2022/03/05 09:41:56;;;;;;;5.55;4.90;;;21.10;28.60;;;;;;5058929;28;20031;-37
2022/03/05 09:44:22;;;;;;;6.70;5.13;;;21.10;28.50;;;;;;5057818;28;20139;-36
2022/03/05 09:46:48;;;;;;;5.82;5.22;;;21.20;28.50;;;;;;5058472;28;20522;-36
2022/03/05 09:49:14;;;;;;;6.78;5.50;;;21.20;28.50;;;;;;5056908;28;20037;-35
2022/03/05 09:51:40;;;;;;;5.80;5.20;;;21.20;28.50;;;;;;5057941;28;20009;-39
2022/03/05 09:54:07;;;;;;;5.68;5.00;;;21.20;28.50;;;;;;5057323;28;20013;-36
2022/03/05 09:56:32;;;;;;;6.28;5.35;;;21.20;28.40;;;;;;5023561;28;20429;-36
2022/03/05 09:58:58;;;;;;;6.38;5.07;;;21.20;28.40;;;;;;5056247;28;20029;-36
2022/03/05 10:01:24;;;;;;;6.60;5.18;;;21.20;28.40;;;;;;5055243;28;20021;-36
2022/03/05 10:03:52;;;;;;;5.72;4.95;;;21.20;28.50;;;;;;5056244;28;20028;-36
2022/03/05 10:06:22;;;;;;;6.68;5.60;;;21.20;28.40;;;;;;5056699;28;20058;-36
2022/03/05 10:08:50;;;;;;;;;;;21.30;28.50;;;;;;5057045;28;20070;-36
2022/03/05 10:11:19;;;;;;;6.60;5.10;;;21.20;28.40;;;;;;5055666;28;19901;-36
2022/03/05 10:13:45;;;;;;;7.00;5.60;;;21.30;28.40;;;;;;5057507;28;20032;-36
2022/03/05 10:16:29;;;;;;;5.90;5.25;;;21.30;28.50;;;;;;5057208;28;20029;-36
2022/03/05 10:18:55;;;;;;;6.28;5.20;;;21.30;28.40;;;;;;5056465;28;20013;-37
2022/03/05 10:21:26;;;;;;;5.60;5.00;;;21.30;28.50;;;;;;5056591;28;20017;-37
2022/03/05 10:23:52;;;;;;;5.72;5.05;;;21.30;28.50;;;;;;5056393;28;20126;-36
2022/03/05 10:26:22;;;;;;;6.47;5.60;;;21.20;28.50;;;;;;5038481;28;20049;-37
2022/03/05 10:28:47;;;;;;;6.00;5.38;;;21.30;28.50;;;;;;5057467;28;20036;-37
2022/03/05 10:31:13;;;;;;;6.43;5.38;;;21.30;28.50;;;;;;5056040;28;20020;-37
2022/03/05 10:33:49;;;;;;;6.95;5.45;;;21.20;28.40;;;;;;5039027;28;20025;-37
2022/03/05 10:36:25;;;;;;;6.72;5.45;;;21.20;28.50;;;;;;5056176;28;20025;-39
2022/03/05 10:38:55;;;;;;;7.60;5.32;;;21.30;28.50;;;;;;5055901;28;20120;-37
2022/03/05 10:41:32;;;;;;;6.63;5.35;;;21.20;28.50;;;;;;5056849;28;20017;-36
2022/03/05 10:44:10;;;;;;;6.45;5.22;;;21.20;28.50;;;;;;5056145;28;20041;-37
2022/03/05 10:46:43;;;;;;;6.80;5.47;;;21.20;28.50;;;;;;5055907;28;20013;-37
2022/03/05 10:49:36;;;;;;;5.88;5.22;;;21.20;28.60;;;;;;5056191;28;20066;-37
2022/03/05 10:52:07;;;;;;;6.75;5.25;;;21.20;28.60;;;;;;5056674;28;20099;-37
2022/03/05 10:54:43;;;;;;;6.68;5.05;;;21.20;28.60;;;;;;5056177;28;20020;-37
2022/03/05 10:57:16;;;;;;;6.70;5.60;;;21.20;28.60;;;;;;5056383;28;20088;-37
2022/03/05 10:59:43;;;;;;;6.03;5.28;;;21.20;28.60;;;;;;5056235;28;20048;-37
2022/03/05 11:02:13;;;;;;;6.95;5.85;;;21.10;28.60;;;;;;5054642;28;20021;-39
2022/03/05 11:04:42;;;;;;;5.97;5.25;;;21.10;28.70;;;;;;5055984;28;20021;-36
2022/03/05 11:07:08;;;;;;;7.40;5.85;;;21.10;28.70;;;;;;5056214;28;20024;-36
2022/03/05 11:09:37;;;;;;;7.25;6.07;;;21.10;28.70;;;;;;5056631;28;20040;-38
2022/03/05 11:12:07;;;;;;;6.97;5.75;;;21.10;29.20;;;;;;5056394;28;20028;-38
2022/03/05 11:14:33;;;;;;;6.22;5.63;;;21.10;28.80;;;;;;5060347;28;20069;-41
2022/03/05 11:17:02;;;;;;;7.55;5.72;;;21.10;28.80;;;;;;5060472;28;20045;-41
2022/03/05 11:19:28;;;;;;;6.35;5.55;;;21.00;28.80;;;;;;5061088;28;20013;-41
2022/03/05 11:21:54;;;;;;;7.43;5.80;;;21.00;28.90;;;;;;5061195;28;20065;-39
2022/03/05 11:24:21;;;;;;;5.97;5.30;;;21.00;28.90;;;;;;5060458;28;20041;-40
2022/03/05 11:26:50;;;;;;;6.47;5.68;;;20.90;28.90;;;;;;5060335;28;20013;-40
2022/03/05 11:29:19;;;;;;;6.85;5.10;;;20.90;28.90;;;;;;5059414;28;20154;-38
2022/03/05 11:31:45;;;;;;;7.47;5.68;;;20.90;29.00;;;;;;5041642;28;20017;-37
2022/03/05 11:34:19;;;;;;;7.55;6.18;;;20.80;29.00;;;;;;5058691;28;20506;-38
2022/03/05 11:36:46;;;;;;;8.20;6.35;;;20.80;29.00;;;;;;5041891;28;20024;-38
2022/03/05 11:39:37;;;;;;;7.55;5.63;;;20.80;29.10;;;;;;5057706;28;20013;-40
2022/03/05 11:42:04;;;;;;;6.47;5.63;;;20.80;29.20;;;;;;5059067;28;20037;-37
2022/03/05 11:44:40;;;;;;;6.43;5.75;;;20.70;29.10;;;;;;5061453;28;20389;-40
2022/03/05 11:47:18;;;;;;;6.32;5.40;;;20.60;29.20;;;;;;5060639;28;20100;-40
2022/03/05 11:49:59;;;;;;;6.95;5.97;;;20.60;29.30;;;;;;5061041;28;20065;-38
2022/03/05 11:52:39;;;;;;;7.63;6.07;;;20.60;29.30;;;;;;5059688;28;20017;-42
2022/03/05 11:55:13;;;;;;;7.65;5.60;;;20.50;29.30;;;;;;5061175;28;20041;-41
2022/03/05 11:57:39;;;;;;;6.32;5.18;;;20.50;29.40;;;;;;5053876;28;20166;-39
2022/03/05 12:00:06;;;;;;;5.90;5.30;;;20.50;29.50;;;;;;5052745;28;20037;-38
2022/03/05 12:02:46;;;;;;;6.55;5.55;;;20.40;29.50;;;;;;5052973;28;20021;-38
2022/03/05 12:05:50;;;;;;;7.70;6.43;;;20.40;29.60;;;;;;5052664;28;20108;-37
2022/03/05 12:08:24;;;;;;;7.45;6.03;;;20.30;29.60;;;;;;5053869;28;20055;-37
2022/03/05 12:11:12;;;;;;;7.93;6.03;;;20.30;29.70;;;;;;5053029;28;20052;-38
2022/03/05 12:13:45;;;;;;;7.20;5.70;;;20.30;29.80;;;;;;5054240;28;20009;-39
2022/03/05 12:16:27;;;;;;;7.82;5.82;;;20.20;29.70;;;;;;5054044;28;20020;-38
2022/03/05 12:18:53;;;;;;;6.63;5.55;;;20.20;29.80;;;;;;5053947;28;20017;-37
2022/03/05 12:21:30;;;;;;;6.93;5.65;;;20.10;29.80;;;;;;5053836;28;20060;-38
2022/03/05 12:24:00;;;;;;;6.57;5.45;;;20.10;29.90;;;;;;5052473;28;20486;-37
2022/03/05 12:26:40;;;;;;;7.10;5.90;;;20.10;29.90;;;;;;5054002;28;20379;-38
2022/03/05 12:29:06;;;;;;;;;;;20.00;30.00;;;;;;5053448;28;20060;-37
2022/03/05 12:31:32;;;;;;;6.80;5.85;;;20.00;30.00;;;;;;5054054;28;19955;-37
2022/03/05 12:33:58;;;;;;;7.28;5.75;;;19.90;30.00;;;;;;5055095;28;20079;-37
2022/03/05 12:36:25;;;;;;;6.07;5.47;;;19.90;30.00;;;;;;5054971;28;20472;-38
2022/03/05 12:38:58;;;;;;;6.80;6.00;;;19.90;30.00;;;;;;5054847;28;20525;-37
2022/03/05 12:41:25;;;;;;;6.15;5.38;;;19.90;30.10;;;;;;5054663;28;20020;-37
2022/03/05 12:43:52;;;;;;;8.65;6.20;;;19.90;30.10;;;;;;5054195;28;20037;-38
2022/03/05 12:46:18;;;;;;;7.25;6.10;;;19.80;30.20;;;;;;5054513;28;20013;-37
2022/03/05 12:48:45;;;;;;;7.68;5.82;;;19.80;30.10;;;;;;5055229;28;20040;-37
2022/03/05 12:51:12;;;;;;;6.78;5.65;;;19.80;30.00;;;;;;5053561;28;20534;-38